createdAt,value
2017-03-08T00:00:31.799Z,14.25
2017-03-08T00:01:12.297Z,14.25
2017-03-08T00:01:52.787Z,14.25
2017-03-08T00:02:33.301Z,14.25
2017-03-08T00:03:13.775Z,14.05
2017-03-08T00:03:54.267Z,14.25
2017-03-08T00:04:34.750Z,14.05
2017-03-08T00:05:15.260Z,14.25
2017-03-08T00:05:55.747Z,14.25
2017-03-08T00:06:36.258Z,14.25
2017-03-08T00:07:16.744Z,14.25
2017-03-08T00:07:57.231Z,14.25
2017-03-08T00:08:37.719Z,14.25
2017-03-08T00:09:18.223Z,14.25
2017-03-08T00:09:58.715Z,14.34
2017-03-08T00:10:39.198Z,14.44
2017-03-08T00:11:19.703Z,14.34
2017-03-08T00:12:00.196Z,14.35
2017-03-08T00:12:40.696Z,14.34
2017-03-08T00:13:21.182Z,14.25
2017-03-08T00:14:01.675Z,14.34
2017-03-08T00:14:42.162Z,14.44
2017-03-08T00:15:22.655Z,14.25
2017-03-08T00:16:03.156Z,14.25
2017-03-08T00:16:43.653Z,14.25
2017-03-08T00:17:24.445Z,14.25
2017-03-08T00:18:04.931Z,14.44
2017-03-08T00:18:45.414Z,14.44
2017-03-08T00:19:25.929Z,14.44
2017-03-08T00:20:06.413Z,14.44
2017-03-08T00:20:46.901Z,14.44
2017-03-08T00:21:27.384Z,14.34
2017-03-08T00:22:07.892Z,14.34
2017-03-08T00:22:48.380Z,14.25
2017-03-08T00:23:28.876Z,14.25
2017-03-08T00:24:09.379Z,14.25
2017-03-08T00:24:49.889Z,14.25
2017-03-08T00:25:30.380Z,14.25
2017-03-08T00:26:10.874Z,14.25
2017-03-08T00:26:51.370Z,14.25
2017-03-08T00:27:31.859Z,14.05
2017-03-08T00:28:12.341Z,14.15
2017-03-08T00:28:52.828Z,14.05
2017-03-08T00:29:33.328Z,14.05
2017-03-08T00:30:13.819Z,14.05
2017-03-08T00:30:54.306Z,14.25
2017-03-08T00:31:34.791Z,14.25
2017-03-08T00:32:15.269Z,14.25
2017-03-08T00:32:55.748Z,14.25
2017-03-08T00:33:36.241Z,14.25
2017-03-08T00:34:16.722Z,14.25
2017-03-08T00:34:57.229Z,14.15
2017-03-08T00:35:37.722Z,14.25
2017-03-08T00:36:18.224Z,14.25
2017-03-08T00:36:58.718Z,14.25
2017-03-08T00:37:39.209Z,14.25
2017-03-08T00:38:19.692Z,14.05
2017-03-08T00:39:00.186Z,14.25
2017-03-08T00:39:40.671Z,14.05
2017-03-08T00:40:21.161Z,14.15
2017-03-08T00:41:01.651Z,14.05
2017-03-08T00:41:42.134Z,14.05
2017-03-08T00:42:22.801Z,14.15
2017-03-08T00:43:03.292Z,14.05
2017-03-08T00:43:43.769Z,14.05
2017-03-08T00:44:24.261Z,14.15
2017-03-08T00:45:05.432Z,14.15
2017-03-08T00:45:45.940Z,14.25
2017-03-08T00:46:26.418Z,14.05
2017-03-08T00:47:06.903Z,14.25
2017-03-08T00:47:47.394Z,14.05
2017-03-08T00:48:27.874Z,14.25
2017-03-08T00:49:08.378Z,14.25
2017-03-08T00:49:48.869Z,14.25
2017-03-08T00:50:29.366Z,14.25
2017-03-08T00:51:09.863Z,14.25
2017-03-08T00:51:50.365Z,14.15
2017-03-08T00:52:30.866Z,13.96
2017-03-08T00:53:11.379Z,14.15
2017-03-08T00:53:51.867Z,14.05
2017-03-08T00:54:32.360Z,14.25
2017-03-08T00:55:12.853Z,14.34
2017-03-08T00:55:53.344Z,14.34
2017-03-08T00:56:33.837Z,14.15
2017-03-08T00:57:14.344Z,14.05
2017-03-08T00:57:54.835Z,14.15
2017-03-08T00:58:35.314Z,14.05
2017-03-08T00:59:15.808Z,14.25
2017-03-08T00:59:56.290Z,14.25
2017-03-08T01:00:36.777Z,14.25
2017-03-08T01:01:17.264Z,14.15
2017-03-08T01:01:57.756Z,14.15
2017-03-08T01:02:38.264Z,14.05
2017-03-08T01:03:18.756Z,14.05
2017-03-08T01:03:59.262Z,14.25
2017-03-08T01:04:39.754Z,14.25
2017-03-08T01:05:20.253Z,14.15
2017-03-08T01:06:00.729Z,14.25
2017-03-08T01:06:41.232Z,14.25
2017-03-08T01:07:21.723Z,14.15
2017-03-08T01:08:02.274Z,14.34
2017-03-08T01:08:42.764Z,14.25
2017-03-08T01:09:23.259Z,14.05
2017-03-08T01:10:03.749Z,14.05
2017-03-08T01:10:44.260Z,14.15
2017-03-08T01:11:24.753Z,14.15
2017-03-08T01:12:05.239Z,14.15
2017-03-08T01:12:45.724Z,14.15
2017-03-08T01:13:26.211Z,14.15
2017-03-08T01:14:06.703Z,14.25
2017-03-08T01:14:47.187Z,14.15
2017-03-08T01:15:27.700Z,14.25
2017-03-08T01:16:08.190Z,14.15
2017-03-08T01:16:48.703Z,14.25
2017-03-08T01:17:29.197Z,14.15
2017-03-08T01:18:09.701Z,14.15
2017-03-08T01:18:50.188Z,14.15
2017-03-08T01:19:30.693Z,14.15
2017-03-08T01:20:11.181Z,14.34
2017-03-08T01:20:51.663Z,14.15
2017-03-08T01:21:32.153Z,14.44
2017-03-08T01:22:12.641Z,14.15
2017-03-08T01:22:53.142Z,14.25
2017-03-08T01:23:33.630Z,14.15
2017-03-08T01:24:14.143Z,14.25
2017-03-08T01:24:54.631Z,14.15
2017-03-08T01:25:35.127Z,14.15
2017-03-08T01:26:15.632Z,14.15
2017-03-08T01:26:56.126Z,14.25
2017-03-08T01:27:36.619Z,14.15
2017-03-08T01:28:17.100Z,14.25
2017-03-08T01:28:57.606Z,14.25
2017-03-08T01:29:38.092Z,14.25
2017-03-08T01:30:18.575Z,14.34
2017-03-08T01:30:59.085Z,14.25
2017-03-08T01:31:39.583Z,14.15
2017-03-08T01:32:20.076Z,14.25
2017-03-08T01:33:00.571Z,14.25
2017-03-08T01:33:41.060Z,14.15
2017-03-08T01:34:21.552Z,14.25
2017-03-08T01:35:02.042Z,14.25
2017-03-08T01:35:42.522Z,14.25
2017-03-08T01:36:23.014Z,14.15
2017-03-08T01:37:03.517Z,14.15
2017-03-08T01:37:44.036Z,14.15
2017-03-08T01:38:24.519Z,14.25
2017-03-08T01:39:05.015Z,14.15
2017-03-08T01:39:45.516Z,14.15
2017-03-08T01:40:26.020Z,14.44
2017-03-08T01:41:06.525Z,14.44
2017-03-08T01:41:47.022Z,14.15
2017-03-08T01:42:27.509Z,14.15
2017-03-08T01:43:08.007Z,14.25
2017-03-08T01:43:48.489Z,14.15
2017-03-08T01:44:28.978Z,14.15
2017-03-08T01:45:09.471Z,14.05
2017-03-08T01:45:49.965Z,14.05
2017-03-08T01:46:30.476Z,14.15
2017-03-08T01:47:10.961Z,14.25
2017-03-08T01:47:51.456Z,14.15
2017-03-08T01:48:31.953Z,14.15
2017-03-08T01:49:12.457Z,14.34
2017-03-08T01:49:52.952Z,14.15
2017-03-08T01:50:33.461Z,14.15
2017-03-08T01:51:13.951Z,14.34
2017-03-08T01:51:54.450Z,14.34
2017-03-08T01:52:34.949Z,14.05
2017-03-08T01:53:15.430Z,14.15
2017-03-08T01:53:55.921Z,14.15
2017-03-08T01:54:36.413Z,14.05
2017-03-08T01:55:16.909Z,14.05
2017-03-08T01:55:57.398Z,14.15
2017-03-08T01:56:37.896Z,14.25
2017-03-08T01:57:18.387Z,14.15
2017-03-08T01:57:58.871Z,14.15
2017-03-08T01:58:39.374Z,14.15
2017-03-08T01:59:19.859Z,14.25
2017-03-08T02:00:00.360Z,14.05
2017-03-08T02:00:40.842Z,14.15
2017-03-08T02:01:21.358Z,14.25
2017-03-08T02:02:01.846Z,14.05
2017-03-08T02:02:42.357Z,14.05
2017-03-08T02:03:22.843Z,14.25
2017-03-08T02:04:03.355Z,14.25
2017-03-08T02:04:43.853Z,14.25
2017-03-08T02:05:24.352Z,14.25
2017-03-08T02:06:04.837Z,14.34
2017-03-08T02:06:45.338Z,14.34
2017-03-08T02:07:25.835Z,14.25
2017-03-08T02:08:06.369Z,14.25
2017-03-08T02:08:46.838Z,14.25
2017-03-08T02:09:27.334Z,14.25
2017-03-08T02:10:07.828Z,14.25
2017-03-08T02:10:48.337Z,14.25
2017-03-08T02:11:28.830Z,14.34
2017-03-08T02:12:09.333Z,14.44
2017-03-08T02:12:49.828Z,14.53
2017-03-08T02:13:30.326Z,14.15
2017-03-08T02:14:10.813Z,14.34
2017-03-08T02:14:51.310Z,14.43
2017-03-08T02:15:31.808Z,14.25
2017-03-08T02:16:12.287Z,14.44
2017-03-08T02:16:52.775Z,14.44
2017-03-08T02:17:33.271Z,14.15
2017-03-08T02:18:13.773Z,14.34
2017-03-08T02:18:54.369Z,14.53
2017-03-08T02:19:34.860Z,14.15
2017-03-08T02:20:15.349Z,14.14
2017-03-08T02:20:55.838Z,14.63
2017-03-08T02:21:36.348Z,14.53
2017-03-08T02:22:16.834Z,14.15
2017-03-08T02:22:57.324Z,14.44
2017-03-08T02:23:37.824Z,14.53
2017-03-08T02:24:18.320Z,14.63
2017-03-08T02:24:58.819Z,14.34
2017-03-08T02:25:39.319Z,14.44
2017-03-08T02:26:19.817Z,14.44
2017-03-08T02:27:00.303Z,14.53
2017-03-08T02:27:40.791Z,14.44
2017-03-08T02:28:21.286Z,14.53
2017-03-08T02:29:01.779Z,14.15
2017-03-08T02:29:42.268Z,14.44
2017-03-08T02:30:22.766Z,14.15
2017-03-08T02:31:03.262Z,14.44
2017-03-08T02:31:43.774Z,14.34
2017-03-08T02:32:24.273Z,14.15
2017-03-08T02:33:04.756Z,14.53
2017-03-08T02:33:45.254Z,14.15
2017-03-08T02:34:25.762Z,14.14
2017-03-08T02:35:06.259Z,14.15
2017-03-08T02:35:46.755Z,14.15
2017-03-08T02:36:27.251Z,14.63
2017-03-08T02:37:07.737Z,14.25
2017-03-08T02:37:48.245Z,14.25
2017-03-08T02:38:28.713Z,14.24
2017-03-08T02:39:09.217Z,14.34
2017-03-08T02:39:49.712Z,14.05
2017-03-08T02:40:30.199Z,14.44
2017-03-08T02:41:10.706Z,14.44
2017-03-08T02:41:51.199Z,14.43
2017-03-08T02:42:31.695Z,14.34
2017-03-08T02:43:12.172Z,14.53
2017-03-08T02:43:52.696Z,14.53
2017-03-08T02:44:33.355Z,14.34
2017-03-08T02:45:13.852Z,14.44
2017-03-08T02:45:54.333Z,14.34
2017-03-08T02:46:34.829Z,14.15
2017-03-08T02:47:15.322Z,14.44
2017-03-08T02:47:55.804Z,14.44
2017-03-08T02:48:36.318Z,14.44
2017-03-08T02:49:16.807Z,14.63
2017-03-08T02:49:57.307Z,14.43
2017-03-08T02:50:37.803Z,14.53
2017-03-08T02:51:18.308Z,14.44
2017-03-08T02:51:58.797Z,14.24
2017-03-08T02:52:39.307Z,14.34
2017-03-08T02:53:19.797Z,14.44
2017-03-08T02:54:00.296Z,14.44
2017-03-08T02:54:40.795Z,14.53
2017-03-08T02:55:21.310Z,14.25
2017-03-08T02:56:01.804Z,14.44
2017-03-08T02:56:42.306Z,14.44
2017-03-08T02:57:22.794Z,14.34
2017-03-08T02:58:03.304Z,14.63
2017-03-08T02:58:43.793Z,14.44
2017-03-08T02:59:24.288Z,14.53
2017-03-08T03:00:04.792Z,14.43
2017-03-08T03:00:45.283Z,14.24
2017-03-08T03:01:25.783Z,14.25
2017-03-08T03:02:06.267Z,14.15
2017-03-08T03:02:46.753Z,14.43
2017-03-08T03:03:27.233Z,14.43
2017-03-08T03:04:07.718Z,14.34
2017-03-08T03:04:48.207Z,14.34
2017-03-08T03:05:28.685Z,14.43
2017-03-08T03:06:09.197Z,14.34
2017-03-08T03:06:49.682Z,14.34
2017-03-08T03:07:30.173Z,14.43
2017-03-08T03:08:10.659Z,14.53
2017-03-08T03:08:51.156Z,14.53
2017-03-08T03:09:31.646Z,14.53
2017-03-08T03:10:12.139Z,14.53
2017-03-08T03:10:52.640Z,14.53
2017-03-08T03:11:33.129Z,14.62
2017-03-08T03:12:13.618Z,14.63
2017-03-08T03:12:54.101Z,14.34
2017-03-08T03:13:34.601Z,14.53
2017-03-08T03:14:15.099Z,14.53
2017-03-08T03:14:55.581Z,14.53
2017-03-08T03:15:36.104Z,14.53
2017-03-08T03:16:16.564Z,14.62
2017-03-08T03:16:57.036Z,14.63
2017-03-08T03:17:37.544Z,14.43
2017-03-08T03:18:18.033Z,14.34
2017-03-08T03:18:58.526Z,14.53
2017-03-08T03:19:39.016Z,14.62
2017-03-08T03:20:19.509Z,14.53
2017-03-08T03:20:59.994Z,14.53
2017-03-08T03:21:40.495Z,14.53
2017-03-08T03:22:20.997Z,14.53
2017-03-08T03:24:33.788Z,14.81
2017-03-08T03:25:14.276Z,14.81
2017-03-08T03:25:54.753Z,14.62
2017-03-08T03:26:35.242Z,14.62
2017-03-08T03:27:15.732Z,14.53
2017-03-08T03:27:56.234Z,14.53
2017-03-08T03:28:36.723Z,14.81
2017-03-08T03:29:17.213Z,14.34
2017-03-08T03:29:58.495Z,14.62
2017-03-08T03:30:38.984Z,14.62
2017-03-08T03:31:19.466Z,14.62
2017-03-08T03:31:59.974Z,14.62
2017-03-08T03:32:40.453Z,14.62
2017-03-08T03:33:20.943Z,14.62
2017-03-08T03:34:01.436Z,14.62
2017-03-08T03:34:41.925Z,14.72
2017-03-08T03:35:22.413Z,14.62
2017-03-08T03:36:02.903Z,14.62
2017-03-08T03:36:43.389Z,14.72
2017-03-08T03:37:23.876Z,14.53
2017-03-08T03:38:04.388Z,14.53
2017-03-08T03:38:44.872Z,14.53
2017-03-08T03:39:25.383Z,14.81
2017-03-08T03:40:05.876Z,14.72
2017-03-08T03:40:46.364Z,14.62
2017-03-08T03:41:26.850Z,14.53
2017-03-08T03:42:07.348Z,14.53
2017-03-08T03:42:47.849Z,14.62
2017-03-08T03:43:28.333Z,14.62
2017-03-08T03:44:08.861Z,14.81
2017-03-08T03:44:49.350Z,14.53
2017-03-08T03:45:30.046Z,14.53
2017-03-08T03:46:10.571Z,14.62
2017-03-08T03:46:51.053Z,14.62
2017-03-08T03:47:31.537Z,14.72
2017-03-08T03:48:12.034Z,14.62
2017-03-08T03:48:52.522Z,14.72
2017-03-08T03:49:33.003Z,14.53
2017-03-08T03:50:13.490Z,14.81
2017-03-08T03:50:53.987Z,14.62
2017-03-08T03:51:34.483Z,14.72
2017-03-08T03:52:14.971Z,14.72
2017-03-08T03:52:55.465Z,14.62
2017-03-08T03:53:35.944Z,14.81
2017-03-08T03:54:16.425Z,14.34
2017-03-08T03:54:56.943Z,14.72
2017-03-08T03:55:37.434Z,14.53
2017-03-08T03:56:17.932Z,14.53
2017-03-08T03:56:58.418Z,14.53
2017-03-08T03:57:38.920Z,14.43
2017-03-08T03:58:19.412Z,14.62
2017-03-08T03:58:59.932Z,14.62
2017-03-08T03:59:40.409Z,14.34
2017-03-08T04:00:20.919Z,14.43
2017-03-08T04:01:01.410Z,14.43
2017-03-08T04:01:41.889Z,14.53
2017-03-08T04:02:22.381Z,14.34
2017-03-08T04:03:02.883Z,14.43
2017-03-08T04:03:43.380Z,14.43
2017-03-08T04:04:23.931Z,14.53
2017-03-08T04:05:04.414Z,14.62
2017-03-08T04:05:44.914Z,14.53
2017-03-08T04:06:25.405Z,14.43
2017-03-08T04:07:05.895Z,14.43
2017-03-08T04:07:46.372Z,14.34
2017-03-08T04:08:26.853Z,14.43
2017-03-08T04:09:07.352Z,14.43
2017-03-08T04:09:47.846Z,14.34
2017-03-08T04:10:28.359Z,14.34
2017-03-08T04:11:08.848Z,14.43
2017-03-08T04:11:49.341Z,14.34
2017-03-08T04:12:29.850Z,14.34
2017-03-08T04:13:10.342Z,14.34
2017-03-08T04:13:50.823Z,14.53
2017-03-08T04:14:31.322Z,14.34
2017-03-08T04:15:11.821Z,14.34
2017-03-08T04:15:52.294Z,14.34
2017-03-08T04:16:32.790Z,14.43
2017-03-08T04:17:13.300Z,14.43
2017-03-08T04:17:53.809Z,14.43
2017-03-08T04:18:34.290Z,14.53
2017-03-08T04:19:14.801Z,14.53
2017-03-08T04:19:55.289Z,14.43
2017-03-08T04:20:35.783Z,14.43
2017-03-08T04:21:16.266Z,14.34
2017-03-08T04:21:56.747Z,14.43
2017-03-08T04:22:37.231Z,14.43
2017-03-08T04:23:17.715Z,14.43
2017-03-08T04:23:58.220Z,14.43
2017-03-08T04:24:38.698Z,14.43
2017-03-08T04:25:19.185Z,14.43
2017-03-08T04:25:59.676Z,14.53
2017-03-08T04:26:40.173Z,14.34
2017-03-08T04:27:20.660Z,14.34
2017-03-08T04:28:01.154Z,14.24
2017-03-08T04:28:41.637Z,14.53
2017-03-08T04:29:22.139Z,14.43
2017-03-08T04:30:02.648Z,14.53
2017-03-08T04:30:43.139Z,14.53
2017-03-08T04:31:23.894Z,14.43
2017-03-08T04:32:04.375Z,14.62
2017-03-08T04:32:44.861Z,14.43
2017-03-08T04:33:25.348Z,14.34
2017-03-08T04:34:05.822Z,14.34
2017-03-08T04:34:46.321Z,14.34
2017-03-08T04:35:26.820Z,14.34
2017-03-08T04:36:07.302Z,14.34
2017-03-08T04:36:47.800Z,14.34
2017-03-08T04:37:28.288Z,14.34
2017-03-08T04:38:08.787Z,14.43
2017-03-08T04:38:49.273Z,14.43
2017-03-08T04:39:29.761Z,14.24
2017-03-08T04:40:10.245Z,14.24
2017-03-08T04:40:50.726Z,14.34
2017-03-08T04:41:31.216Z,14.34
2017-03-08T04:42:11.714Z,14.34
2017-03-08T04:42:52.217Z,14.34
2017-03-08T04:43:32.714Z,14.43
2017-03-08T04:44:13.234Z,14.34
2017-03-08T04:44:53.717Z,14.34
2017-03-08T04:45:34.215Z,14.34
2017-03-08T04:46:14.711Z,14.53
2017-03-08T04:46:55.211Z,14.43
2017-03-08T04:47:35.708Z,14.43
2017-03-08T04:48:16.205Z,14.43
2017-03-08T04:48:56.707Z,14.43
2017-03-08T04:49:37.191Z,14.34
2017-03-08T04:50:17.669Z,14.34
2017-03-08T04:50:58.159Z,14.43
2017-03-08T04:51:38.658Z,14.24
2017-03-08T04:52:19.154Z,14.34
2017-03-08T04:52:59.638Z,14.43
2017-03-08T04:53:40.132Z,14.43
2017-03-08T04:54:20.634Z,14.53
2017-03-08T04:55:01.115Z,14.43
2017-03-08T04:55:41.608Z,14.53
2017-03-08T04:56:22.403Z,14.34
2017-03-08T04:57:02.884Z,14.43
2017-03-08T04:57:43.362Z,14.43
2017-03-08T04:58:23.876Z,14.43
2017-03-08T04:59:04.487Z,14.43
2017-03-08T04:59:44.970Z,14.43
2017-03-08T05:00:25.458Z,14.34
2017-03-08T05:01:05.949Z,14.14
2017-03-08T05:01:46.432Z,14.43
2017-03-08T05:02:26.920Z,14.53
2017-03-08T05:03:07.411Z,14.34
2017-03-08T05:03:47.903Z,14.34
2017-03-08T05:04:28.417Z,14.43
2017-03-08T05:05:08.911Z,14.34
2017-03-08T05:05:49.412Z,14.34
2017-03-08T05:06:29.899Z,14.34
2017-03-08T05:07:10.385Z,14.53
2017-03-08T05:07:50.871Z,14.43
2017-03-08T05:08:31.350Z,14.34
2017-03-08T05:09:11.844Z,14.43
2017-03-08T05:09:52.341Z,14.24
2017-03-08T05:10:32.828Z,14.43
2017-03-08T05:11:13.307Z,14.24
2017-03-08T05:11:53.790Z,14.43
2017-03-08T05:12:34.274Z,14.24
2017-03-08T05:13:14.761Z,14.24
2017-03-08T05:13:55.245Z,14.43
2017-03-08T05:14:35.750Z,14.34
2017-03-08T05:15:16.247Z,14.43
2017-03-08T05:15:56.759Z,14.34
2017-03-08T05:16:37.236Z,14.43
2017-03-08T05:17:17.733Z,14.53
2017-03-08T05:17:58.237Z,14.43
2017-03-08T05:18:38.731Z,14.43
2017-03-08T05:19:19.352Z,14.43
2017-03-08T05:19:59.851Z,14.43
2017-03-08T05:20:40.342Z,14.43
2017-03-08T05:21:20.850Z,14.53
2017-03-08T05:22:01.636Z,14.43
2017-03-08T05:22:42.126Z,14.43
2017-03-08T05:23:22.613Z,14.34
2017-03-08T05:24:03.112Z,14.34
2017-03-08T05:24:43.601Z,14.34
2017-03-08T05:25:24.090Z,14.43
2017-03-08T05:26:04.586Z,14.43
2017-03-08T05:26:45.087Z,14.43
2017-03-08T05:27:26.396Z,14.53
2017-03-08T05:28:06.074Z,14.53
2017-03-08T05:28:46.567Z,14.43
2017-03-08T05:29:27.058Z,14.53
2017-03-08T05:30:07.552Z,14.53
2017-03-08T05:30:48.030Z,14.53
2017-03-08T05:31:28.530Z,14.34
2017-03-08T05:32:09.039Z,14.34
2017-03-08T05:32:49.527Z,14.34
2017-03-08T05:33:30.038Z,14.34
2017-03-08T05:34:10.521Z,14.34
2017-03-08T05:34:51.028Z,14.43
2017-03-08T05:35:31.519Z,14.34
2017-03-08T05:36:11.985Z,14.43
2017-03-08T05:36:52.487Z,14.43
2017-03-08T05:37:32.979Z,14.43
2017-03-08T05:38:14.375Z,14.34
2017-03-08T05:38:54.895Z,14.43
2017-03-08T05:39:35.396Z,14.43
2017-03-08T05:40:15.901Z,14.43
2017-03-08T05:40:56.403Z,14.43
2017-03-08T05:41:36.909Z,14.43
2017-03-08T05:42:17.403Z,14.53
2017-03-08T05:42:57.889Z,14.34
2017-03-08T05:43:38.400Z,14.43
2017-03-08T05:44:18.880Z,14.43
2017-03-08T05:44:59.368Z,14.43
2017-03-08T05:45:39.854Z,14.43
2017-03-08T05:46:20.341Z,14.53
2017-03-08T05:47:00.833Z,14.34
2017-03-08T05:47:41.315Z,14.43
2017-03-08T05:48:21.817Z,14.14
2017-03-08T05:49:02.314Z,14.53
2017-03-08T05:49:42.817Z,14.43
2017-03-08T05:50:23.299Z,14.43
2017-03-08T05:51:03.786Z,14.43
2017-03-08T05:51:44.272Z,14.53
2017-03-08T05:52:24.752Z,14.53
2017-03-08T05:53:05.262Z,14.14
2017-03-08T05:53:45.751Z,14.24
2017-03-08T05:54:26.248Z,14.43
2017-03-08T05:55:06.739Z,14.43
2017-03-08T05:55:47.226Z,14.34
2017-03-08T05:56:27.723Z,14.14
2017-03-08T05:57:08.221Z,14.43
2017-03-08T05:57:48.708Z,14.14
2017-03-08T05:58:29.202Z,14.43
2017-03-08T05:59:09.675Z,14.62
2017-03-08T05:59:50.170Z,14.24
2017-03-08T06:00:30.665Z,14.53
2017-03-08T06:01:11.153Z,14.43
2017-03-08T06:01:51.649Z,14.14
2017-03-08T06:02:32.142Z,14.34
2017-03-08T06:03:12.637Z,14.43
2017-03-08T06:03:53.125Z,14.43
2017-03-08T06:04:33.621Z,14.14
2017-03-08T06:05:14.112Z,14.34
2017-03-08T06:05:54.624Z,14.53
2017-03-08T06:06:35.116Z,14.34
2017-03-08T06:07:15.611Z,14.24
2017-03-08T06:07:56.110Z,14.04
2017-03-08T06:08:36.590Z,14.04
2017-03-08T06:09:17.085Z,14.24
2017-03-08T06:09:57.570Z,14.14
2017-03-08T06:10:38.070Z,14.14
2017-03-08T06:11:18.565Z,14.04
2017-03-08T06:11:59.068Z,14.04
2017-03-08T06:12:39.551Z,14.24
2017-03-08T06:13:20.042Z,14.14
2017-03-08T06:14:00.525Z,14.24
2017-03-08T06:14:41.015Z,14.24
2017-03-08T06:15:21.507Z,14.14
2017-03-08T06:16:02.000Z,14.24
2017-03-08T06:16:42.515Z,14.14
2017-03-08T06:17:23.004Z,14.24
2017-03-08T06:18:03.483Z,14.24
2017-03-08T06:18:43.966Z,14.24
2017-03-08T06:19:24.453Z,14.24
2017-03-08T06:20:04.966Z,14.34
2017-03-08T06:20:45.454Z,14.34
2017-03-08T06:21:25.964Z,14.34
2017-03-08T06:22:06.449Z,14.43
2017-03-08T06:22:46.931Z,14.34
2017-03-08T06:23:27.426Z,14.34
2017-03-08T06:24:07.918Z,14.34
2017-03-08T06:24:48.403Z,14.34
2017-03-08T06:25:28.887Z,14.24
2017-03-08T06:26:09.376Z,14.43
2017-03-08T06:26:49.863Z,14.24
2017-03-08T06:27:30.342Z,14.24
2017-03-08T06:28:10.837Z,14.34
2017-03-08T06:28:51.331Z,14.24
2017-03-08T06:29:31.833Z,14.34
2017-03-08T06:30:12.333Z,14.24
2017-03-08T06:30:52.866Z,14.43
2017-03-08T06:31:33.360Z,14.34
2017-03-08T06:32:13.857Z,14.43
2017-03-08T06:32:54.352Z,14.24
2017-03-08T06:33:34.863Z,14.34
2017-03-08T06:34:15.361Z,14.24
2017-03-08T06:34:55.854Z,14.24
2017-03-08T06:35:36.340Z,14.24
2017-03-08T06:36:16.840Z,14.43
2017-03-08T06:36:57.333Z,14.14
2017-03-08T06:37:37.826Z,14.43
2017-03-08T06:38:18.639Z,14.24
2017-03-08T06:38:59.132Z,14.24
2017-03-08T06:39:39.615Z,14.24
2017-03-08T06:40:20.115Z,14.43
2017-03-08T06:41:00.613Z,14.24
2017-03-08T06:41:41.092Z,14.34
2017-03-08T06:42:21.593Z,14.34
2017-03-08T06:43:02.083Z,14.24
2017-03-08T06:43:42.608Z,14.43
2017-03-08T06:44:23.110Z,14.34
2017-03-08T06:45:03.607Z,14.43
2017-03-08T06:45:44.096Z,14.24
2017-03-08T06:46:24.589Z,14.53
2017-03-08T06:47:05.080Z,14.34
2017-03-08T06:47:45.587Z,14.24
2017-03-08T06:48:26.084Z,14.24
2017-03-08T06:49:06.598Z,14.14
2017-03-08T06:49:47.093Z,14.14
2017-03-08T06:50:27.586Z,14.14
2017-03-08T06:51:08.077Z,14.14
2017-03-08T06:51:48.595Z,14.14
2017-03-08T06:52:29.092Z,14.04
2017-03-08T06:53:09.579Z,14.14
2017-03-08T06:53:50.072Z,14.04
2017-03-08T06:54:30.569Z,14.04
2017-03-08T06:55:11.050Z,14.14
2017-03-08T06:55:51.534Z,14.04
2017-03-08T06:56:32.027Z,14.14
2017-03-08T06:57:12.520Z,14.05
2017-03-08T06:57:53.035Z,14.14
2017-03-08T06:58:33.520Z,13.86
2017-03-08T06:59:14.017Z,13.85
2017-03-08T06:59:54.494Z,13.95
2017-03-08T07:00:35.003Z,13.85
2017-03-08T07:01:15.489Z,14.14
2017-03-08T07:01:56.874Z,13.85
2017-03-08T07:02:37.623Z,13.76
2017-03-08T07:03:18.910Z,13.76
2017-03-08T07:04:00.232Z,13.76
2017-03-08T07:04:40.717Z,13.85
2017-03-08T07:05:21.242Z,14.04
2017-03-08T07:06:01.724Z,13.76
2017-03-08T07:06:42.222Z,14.14
2017-03-08T07:07:22.719Z,13.96
2017-03-08T07:08:03.201Z,13.86
2017-03-08T07:08:43.691Z,13.76
2017-03-08T07:09:24.186Z,13.86
2017-03-08T07:10:04.659Z,13.76
2017-03-08T07:10:45.162Z,13.85
2017-03-08T07:11:25.626Z,13.96
2017-03-08T07:12:06.132Z,13.95
2017-03-08T07:12:46.617Z,14.15
2017-03-08T07:13:27.432Z,13.86
2017-03-08T07:14:07.930Z,14.04
2017-03-08T07:14:48.418Z,13.85
2017-03-08T07:15:28.919Z,13.86
2017-03-08T07:16:09.381Z,13.86
2017-03-08T07:16:49.894Z,13.76
2017-03-08T07:17:30.370Z,13.86
2017-03-08T07:18:10.869Z,14.15
2017-03-08T07:18:51.370Z,14.25
2017-03-08T07:19:31.864Z,14.24
2017-03-08T07:20:12.368Z,14.05
2017-03-08T07:20:52.852Z,14.05
2017-03-08T07:21:33.339Z,14.15
2017-03-08T07:22:13.860Z,14.15
2017-03-08T07:22:54.358Z,14.05
2017-03-08T07:23:34.857Z,14.05
2017-03-08T07:24:16.278Z,14.15
2017-03-08T07:24:56.780Z,14.05
2017-03-08T07:25:37.256Z,13.86
2017-03-08T07:26:17.733Z,14.15
2017-03-08T07:26:58.227Z,14.05
2017-03-08T07:27:38.719Z,13.76
2017-03-08T07:28:19.195Z,14.15
2017-03-08T07:28:59.688Z,13.67
2017-03-08T07:29:40.171Z,13.76
2017-03-08T07:30:20.635Z,13.76
2017-03-08T07:31:01.136Z,13.96
2017-03-08T07:31:41.617Z,13.57
2017-03-08T07:32:22.125Z,13.76
2017-03-08T07:33:02.623Z,13.96
2017-03-08T07:33:43.104Z,13.76
2017-03-08T07:34:23.587Z,13.86
2017-03-08T07:35:04.065Z,13.57
2017-03-08T07:35:44.573Z,13.76
2017-03-08T07:36:25.058Z,13.67
2017-03-08T07:37:05.550Z,14.05
2017-03-08T07:37:46.042Z,14.15
2017-03-08T07:38:26.539Z,14.05
2017-03-08T07:39:07.039Z,14.05
2017-03-08T07:39:47.544Z,13.76
2017-03-08T07:40:28.036Z,13.76
2017-03-08T07:41:08.516Z,13.96
2017-03-08T07:41:49.021Z,13.76
2017-03-08T07:42:29.510Z,13.96
2017-03-08T07:43:10.004Z,13.67
2017-03-08T07:43:50.487Z,13.76
2017-03-08T07:44:30.985Z,13.67
2017-03-08T07:45:11.619Z,14.15
2017-03-08T07:45:52.116Z,13.76
2017-03-08T07:46:32.609Z,14.05
2017-03-08T07:47:13.084Z,14.05
2017-03-08T07:47:53.559Z,14.25
2017-03-08T07:48:34.055Z,14.15
2017-03-08T07:49:14.763Z,14.05
2017-03-08T07:49:55.164Z,14.05
2017-03-08T07:50:35.655Z,14.15
2017-03-08T07:51:16.156Z,14.15
2017-03-08T07:51:56.653Z,14.15
2017-03-08T07:52:37.151Z,14.15
2017-03-08T07:53:17.650Z,14.15
2017-03-08T07:53:58.710Z,14.15
2017-03-08T07:54:39.212Z,14.44
2017-03-08T07:55:19.734Z,14.44
2017-03-08T07:56:00.217Z,14.44
2017-03-08T07:56:40.711Z,14.25
2017-03-08T07:57:21.205Z,14.35
2017-03-08T07:58:01.693Z,14.25
2017-03-08T07:58:42.189Z,14.05
2017-03-08T07:59:22.687Z,14.25
2017-03-08T08:00:03.187Z,14.45
2017-03-08T08:00:43.677Z,14.34
2017-03-08T08:01:24.168Z,14.35
2017-03-08T08:02:04.657Z,14.45
2017-03-08T08:02:45.152Z,14.73
2017-03-08T08:03:25.651Z,14.64
2017-03-08T08:04:06.242Z,14.53
2017-03-08T08:04:46.736Z,14.54
2017-03-08T08:05:27.231Z,14.63
2017-03-08T08:06:07.726Z,14.34
2017-03-08T08:06:48.223Z,14.83
2017-03-08T08:07:28.716Z,14.83
2017-03-08T08:08:09.205Z,14.92
2017-03-08T08:08:49.701Z,14.83
2017-03-08T08:09:30.198Z,14.93
2017-03-08T08:10:10.684Z,14.73
2017-03-08T08:10:51.186Z,14.63
2017-03-08T08:11:31.655Z,15.01
2017-03-08T08:12:12.156Z,14.92
2017-03-08T08:12:52.647Z,14.83
2017-03-08T08:13:33.147Z,14.92
2017-03-08T08:14:13.654Z,15.12
2017-03-08T08:14:54.146Z,15.21
2017-03-08T08:15:34.636Z,15.21
2017-03-08T08:16:15.099Z,15.12
2017-03-08T08:16:55.614Z,15.21
2017-03-08T08:17:36.103Z,15.21
2017-03-08T08:18:16.602Z,15.5
2017-03-08T08:18:57.093Z,15.11
2017-03-08T08:19:37.834Z,15.22
2017-03-08T08:20:18.327Z,15.21
2017-03-08T08:20:58.818Z,15.21
2017-03-08T08:21:39.303Z,15.3
2017-03-08T08:22:19.806Z,15.21
2017-03-08T08:23:00.294Z,15.4
2017-03-08T08:23:40.791Z,15.5
2017-03-08T08:24:21.295Z,15.3
2017-03-08T08:25:01.789Z,15.4
2017-03-08T08:25:42.268Z,15.22
2017-03-08T08:26:22.747Z,15.4
2017-03-08T08:27:03.250Z,15.41
2017-03-08T08:27:43.748Z,15.78
2017-03-08T08:28:24.249Z,15.7
2017-03-08T08:29:05.717Z,15.5
2017-03-08T08:29:46.822Z,15.5
2017-03-08T08:30:27.306Z,15.7
2017-03-08T08:31:07.787Z,15.7
2017-03-08T08:31:48.284Z,15.7
2017-03-08T08:32:28.778Z,15.59
2017-03-08T08:33:09.271Z,15.5
2017-03-08T08:33:49.762Z,15.69
2017-03-08T08:34:30.263Z,15.5
2017-03-08T08:35:10.779Z,15.6
2017-03-08T08:35:51.265Z,15.7
2017-03-08T08:36:31.760Z,15.5
2017-03-08T08:37:12.257Z,15.41
2017-03-08T08:37:52.756Z,15.7
2017-03-08T08:38:33.262Z,15.6
2017-03-08T08:39:13.775Z,15.41
2017-03-08T08:39:54.265Z,15.8
2017-03-08T08:40:34.761Z,15.8
2017-03-08T08:41:15.261Z,15.7
2017-03-08T08:41:55.756Z,15.7
2017-03-08T08:42:36.237Z,15.6
2017-03-08T08:43:16.753Z,15.7
2017-03-08T08:43:57.253Z,15.6